Hovedside
METAR-TAF:

METAR-TAF

Lufthavner :

Ørsta/Volda lufthamn. Hovden

Ørsta-Volda, Norge

breddegrad: 62-11N, lengdegrad: 006-04E, høyde over havet: 7 m

Gjeldene værobservasjon

Denne rapporten ble laget for 1 time og 17 minutter siden, klokken 11:20 UTC
Vind 3 kt fra skiftende retning
Temperatur 2°C
Luftfuktighet 80%
Trykk 1005 hPa
Sikt 10 km eller mer
Få skyer i en høyde av 2500 ft
Spredte skyer i en høyde av 3500 ft
Brutte skyer i en høyde av 4000 ft
regnbyger i nærheten

METAR: ENOV 241120Z VRB03KT 9999 VCSH FEW025 SCT035 BKN040 02/M01 Q1005 RMK WIND AT 2175FT 25008KT

Tid: 13:37 (12:37 UTC)


TAF: fraværende

Værobservasjoner og værvarsel for over 4000 flyplasser (METAR- og TAF-rapporter).

Tilgjengelige stasjoner er representert av de røde og gule prikkene på kartet.

Hold musepekeren over prikken for å se navnet på stasjonen.

Klikk så for å se værobservasjoner og -varsler.

For å forandre kartet kan du klikke på den grønne knappen med svart kryss for å zoome inn, på den grønne knappen med strek for å zoome ut, eller på de grønne pilene for å se tilstøtende kart.


METAR-TAF: